Time;durP1;ratioP1;P1;durP2;ratioP2;P2;SDS_P1;SDS_P2;PMS_P1;PMS_P2;Temp;Humidity;BMP_temperature;BMP_pressure;BME280_temperature;BME280_humidity;BME280_pressure;Samples;Min_cycle;Max_cycle;Signal;HPM_P1;HPM_P2
2021/07/13 00:01:21;;;;;;;10.98;7.72;;;20.30;99.90;;;;;;5063488;28;20025;-57
2021/07/13 00:03:48;;;;;;;12.02;7.40;;;20.20;99.90;;;;;;5046921;28;20021;-57
2021/07/13 00:06:14;;;;;;;14.13;7.72;;;20.20;99.90;;;;;;5059800;28;20096;-57
2021/07/13 00:08:40;;;;;;;8.80;7.50;;;20.10;99.90;;;;;;5059209;28;20017;-57
2021/07/13 00:11:05;;;;;;;9.52;8.30;;;20.10;99.90;;;;;;5058260;28;20051;-57
2021/07/13 00:13:31;;;;;;;8.75;7.82;;;20.10;99.90;;;;;;5060114;28;20112;-57
2021/07/13 00:15:56;;;;;;;9.10;8.20;;;20.00;99.90;;;;;;5054462;28;20026;-58
2021/07/13 00:18:22;;;;;;;9.02;8.15;;;20.10;99.90;;;;;;5059456;28;20097;-57
2021/07/13 00:20:47;;;;;;;9.10;8.25;;;20.00;99.90;;;;;;5058439;28;20037;-57
2021/07/13 00:23:13;;;;;;;10.00;9.00;;;20.00;99.90;;;;;;5058902;28;20028;-58
2021/07/13 00:25:38;;;;;;;10.02;9.10;;;20.00;99.90;;;;;;5058263;28;20385;-57
2021/07/13 00:28:05;;;;;;;9.95;8.90;;;19.90;99.90;;;;;;5057527;28;20032;-57
2021/07/13 00:30:31;;;;;;;9.95;8.95;;;19.90;99.90;;;;;;5059246;28;20397;-57
2021/07/13 00:32:56;;;;;;;10.30;9.30;;;19.90;99.90;;;;;;5051332;28;20055;-57
2021/07/13 00:35:22;;;;;;;9.43;8.52;;;19.80;99.90;;;;;;5062355;28;20117;-58
2021/07/13 00:37:48;;;;;;;9.85;8.85;;;19.80;99.90;;;;;;5059427;28;20041;-57
2021/07/13 00:40:16;;;;;;;13.07;9.35;;;19.80;99.90;;;;;;5058880;28;20016;-57
2021/07/13 00:42:44;;;;;;;10.75;9.15;;;19.70;99.90;;;;;;5060282;28;20039;-57
2021/07/13 00:45:10;;;;;;;10.15;9.00;;;19.70;99.90;;;;;;5060237;28;20024;-57
2021/07/13 00:47:35;;;;;;;11.10;9.98;;;19.70;99.90;;;;;;5063079;28;20494;-57
2021/07/13 00:50:02;;;;;;;11.52;9.50;;;19.70;99.90;;;;;;5059362;28;20029;-57
2021/07/13 00:52:28;;;;;;;11.82;9.60;;;19.60;99.90;;;;;;5059831;28;20310;-57
2021/07/13 00:54:55;;;;;;;11.15;9.98;;;19.60;99.90;;;;;;5059374;28;20024;-57
2021/07/13 00:57:21;;;;;;;11.07;9.80;;;19.60;99.90;;;;;;5063262;28;20385;-57
2021/07/13 00:59:47;;;;;;;10.57;9.55;;;19.70;99.90;;;;;;5062727;28;20035;-57
2021/07/13 01:02:14;;;;;;;10.98;9.70;;;19.60;99.90;;;;;;5061698;28;20035;-58
2021/07/13 01:04:54;;;;;;;13.05;9.98;;;19.60;99.90;;;;;;5054692;28;20024;-57
2021/07/13 01:07:50;;;;;;;11.90;10.15;;;19.60;99.90;;;;;;5053183;28;20341;-58
2021/07/13 01:10:33;;;;;;;13.07;9.20;;;19.60;99.90;;;;;;5063166;28;20049;-57
2021/07/13 01:13:17;;;;;;;11.95;10.60;;;19.60;99.90;;;;;;5065968;28;20028;-58
2021/07/13 01:15:52;;;;;;;12.70;9.70;;;19.50;99.90;;;;;;5058682;28;20086;-56
2021/07/13 01:18:22;;;;;;;11.65;10.40;;;19.50;99.90;;;;;;5049773;28;20033;-57
2021/07/13 01:21:06;;;;;;;;;;;19.40;99.90;;;;;;5061933;28;20410;-56
2021/07/13 01:23:39;;;;;;;12.63;9.57;;;19.40;99.90;;;;;;5054041;28;20018;-57
2021/07/13 01:26:34;;;;;;;12.02;9.98;;;19.40;99.90;;;;;;5061918;28;20025;-57
2021/07/13 01:29:04;;;;;;;11.32;10.23;;;19.30;99.90;;;;;;5060849;28;20028;-57
2021/07/13 01:31:30;;;;;;;10.73;9.63;;;19.30;99.90;;;;;;5058654;28;20503;-57
2021/07/13 01:34:03;;;;;;;14.10;10.00;;;19.20;99.90;;;;;;5059047;28;20028;-57
2021/07/13 01:36:32;;;;;;;11.98;10.07;;;19.20;99.90;;;;;;5060112;28;20102;-57
2021/07/13 01:38:59;;;;;;;11.63;10.43;;;19.20;99.90;;;;;;5065509;28;20037;-57
2021/07/13 01:41:27;;;;;;;12.23;10.85;;;19.10;99.90;;;;;;5058549;28;20630;-57
2021/07/13 01:43:54;;;;;;;14.88;10.75;;;19.10;99.90;;;;;;5065377;28;20032;-57
2021/07/13 01:46:22;;;;;;;11.85;10.65;;;19.00;99.90;;;;;;5058592;28;20013;-56
2021/07/13 01:48:50;;;;;;;12.15;10.95;;;19.00;99.90;;;;;;5058517;28;20036;-57
2021/07/13 01:51:18;;;;;;;19.63;11.68;;;19.00;99.90;;;;;;5063141;28;20029;-56
2021/07/13 01:53:45;;;;;;;13.30;11.20;;;19.00;99.90;;;;;;5053157;28;20107;-56
2021/07/13 01:56:11;;;;;;;13.18;10.48;;;18.90;99.90;;;;;;5065173;28;20075;-56
2021/07/13 01:58:38;;;;;;;13.48;11.27;;;18.90;99.90;;;;;;5058395;28;20066;-56
2021/07/13 02:01:09;;;;;;;13.32;11.23;;;18.90;99.90;;;;;;5064473;28;20363;-56
2021/07/13 02:03:37;;;;;;;12.32;11.02;;;18.90;99.90;;;;;;5050085;28;20024;-56
2021/07/13 02:06:03;;;;;;;13.02;11.68;;;18.80;99.90;;;;;;5060139;28;20028;-56
2021/07/13 02:08:30;;;;;;;13.30;11.15;;;18.80;99.90;;;;;;5062649;28;20082;-56
2021/07/13 02:10:56;;;;;;;13.85;12.18;;;18.80;99.90;;;;;;5058613;28;20037;-56
2021/07/13 02:13:22;;;;;;;12.65;11.35;;;18.70;99.90;;;;;;5063572;28;20490;-56
2021/07/13 02:15:47;;;;;;;16.02;12.20;;;18.70;99.90;;;;;;5053987;28;20079;-56
2021/07/13 02:18:13;;;;;;;15.70;11.63;;;18.70;99.90;;;;;;5060190;28;20485;-56
2021/07/13 02:20:40;;;;;;;12.82;11.35;;;18.60;99.90;;;;;;5061366;28;20024;-56
2021/07/13 02:23:06;;;;;;;12.15;10.90;;;18.60;99.90;;;;;;5059755;28;20055;-56
2021/07/13 02:25:33;;;;;;;13.93;12.18;;;18.50;99.90;;;;;;5060751;28;20028;-56
2021/07/13 02:28:16;;;;;;;13.57;12.10;;;18.50;99.90;;;;;;5060399;28;20096;-56
2021/07/13 02:30:46;;;;;;;12.30;11.07;;;18.50;99.90;;;;;;5061000;28;20112;-56
2021/07/13 02:33:28;;;;;;;14.85;12.10;;;18.40;99.90;;;;;;5053250;28;20086;-56
2021/07/13 02:36:03;;;;;;;18.83;12.93;;;18.40;99.90;;;;;;5064719;28;20024;-56
2021/07/13 02:38:29;;;;;;;16.77;13.90;;;18.40;99.90;;;;;;5054965;28;20513;-56
2021/07/13 02:40:55;;;;;;;13.90;12.45;;;18.40;99.90;;;;;;5060528;28;20036;-56
2021/07/13 02:43:22;;;;;;;13.65;12.25;;;18.30;99.90;;;;;;5060435;28;20031;-57
2021/07/13 02:45:51;;;;;;;14.57;12.13;;;18.30;99.90;;;;;;5056249;28;20505;-57
2021/07/13 02:48:17;;;;;;;14.65;13.15;;;18.30;99.90;;;;;;5054622;28;20060;-57
2021/07/13 02:50:44;;;;;;;14.10;12.55;;;18.20;99.90;;;;;;5062246;28;20057;-57
2021/07/13 02:53:11;;;;;;;16.17;14.48;;;18.20;99.90;;;;;;5058044;28;20035;-57
2021/07/13 02:55:37;;;;;;;15.23;13.63;;;18.20;99.90;;;;;;5061694;28;20039;-57
2021/07/13 02:58:04;;;;;;;19.40;14.65;;;18.20;99.90;;;;;;5059226;28;20533;-57
2021/07/13 03:00:32;;;;;;;21.27;15.00;;;18.20;99.90;;;;;;5060123;28;20123;-58
2021/07/13 03:02:57;;;;;;;17.90;15.27;;;18.10;99.90;;;;;;5050328;28;20029;-57
2021/07/13 03:05:24;;;;;;;16.15;13.75;;;18.20;99.90;;;;;;5036651;28;20505;-57
2021/07/13 03:07:52;;;;;;;15.05;13.50;;;18.20;99.90;;;;;;5038640;28;20264;-57
2021/07/13 03:10:20;;;;;;;14.73;13.23;;;18.10;99.90;;;;;;5036405;28;20054;-57
2021/07/13 03:12:48;;;;;;;17.67;14.77;;;18.10;99.90;;;;;;5034505;28;20051;-57
2021/07/13 03:15:14;;;;;;;15.57;13.80;;;18.00;99.90;;;;;;5037836;28;20275;-57
2021/07/13 03:17:39;;;;;;;14.52;13.02;;;18.00;99.90;;;;;;5035591;28;20449;-57
2021/07/13 03:20:06;;;;;;;19.08;14.93;;;18.00;99.90;;;;;;5036304;28;20028;-57
2021/07/13 03:22:36;;;;;;;16.10;14.40;;;18.00;99.90;;;;;;5034324;28;20283;-58
2021/07/13 03:25:03;;;;;;;18.05;15.30;;;18.00;99.90;;;;;;5036433;28;20428;-57
2021/07/13 03:27:33;;;;;;;17.83;15.05;;;18.00;99.90;;;;;;5034482;28;20032;-57
2021/07/13 03:30:00;;;;;;;18.85;15.70;;;18.00;99.90;;;;;;5036127;28;20048;-57
2021/07/13 03:32:27;;;;;;;18.05;15.02;;;18.00;99.90;;;;;;5032292;28;20026;-57
2021/07/13 03:34:53;;;;;;;18.35;15.70;;;18.00;99.90;;;;;;5034525;28;20257;-56
2021/07/13 03:37:19;;;;;;;18.23;15.50;;;18.00;99.90;;;;;;5028574;28;20053;-57
2021/07/13 03:39:46;;;;;;;17.70;15.27;;;18.00;99.90;;;;;;5037168;28;20479;-56
2021/07/13 03:42:12;;;;;;;17.52;15.55;;;18.00;99.90;;;;;;5048217;28;20045;-56
2021/07/13 03:44:40;;;;;;;19.00;15.00;;;17.90;99.90;;;;;;5051516;28;20376;-57
2021/07/13 03:47:05;;;;;;;19.45;15.40;;;17.90;99.90;;;;;;5046194;28;20021;-56
2021/07/13 03:49:31;;;;;;;16.00;14.27;;;17.90;99.90;;;;;;5039623;28;20032;-56
2021/07/13 03:51:56;;;;;;;16.23;14.35;;;17.90;99.90;;;;;;5047944;28;20495;-56
2021/07/13 03:54:22;;;;;;;18.63;14.90;;;17.90;99.90;;;;;;5032542;28;20038;-56
2021/07/13 03:56:49;;;;;;;15.73;14.13;;;17.90;99.90;;;;;;5048705;28;20029;-56
2021/07/13 03:59:16;;;;;;;16.67;14.88;;;17.90;99.90;;;;;;5043036;28;20063;-56
2021/07/13 04:01:42;;;;;;;15.55;13.95;;;17.90;99.90;;;;;;5054304;28;20036;-56
2021/07/13 04:04:07;;;;;;;18.50;16.50;;;17.90;99.90;;;;;;5043989;28;20021;-57
2021/07/13 04:06:33;;;;;;;18.85;15.85;;;17.90;99.90;;;;;;5038236;28;20028;-57
2021/07/13 04:09:00;;;;;;;22.20;15.90;;;17.90;99.90;;;;;;5047481;28;20032;-56
2021/07/13 04:11:25;;;;;;;20.92;18.00;;;17.90;99.90;;;;;;5032388;28;20116;-57
2021/07/13 04:13:51;;;;;;;19.65;17.55;;;17.90;99.90;;;;;;5048303;28;20426;-57
2021/07/13 04:16:16;;;;;;;22.27;18.50;;;18.00;99.90;;;;;;5038644;28;20024;-56
2021/07/13 04:18:42;;;;;;;19.75;17.38;;;18.00;99.90;;;;;;5052641;28;20045;-57
2021/07/13 04:21:07;;;;;;;25.23;19.40;;;18.00;99.90;;;;;;5043466;28;20029;-57
2021/07/13 04:23:34;;;;;;;19.23;17.23;;;18.00;99.90;;;;;;5047725;28;20051;-57
2021/07/13 04:26:00;;;;;;;19.70;17.52;;;18.00;99.90;;;;;;5051561;28;20038;-57
2021/07/13 04:28:30;;;;;;;20.10;17.27;;;18.00;99.90;;;;;;5050107;28;20022;-57
2021/07/13 04:31:00;;;;;;;20.83;18.40;;;18.10;99.90;;;;;;5053724;28;20661;-57
2021/07/13 04:33:26;;;;;;;22.63;18.42;;;18.10;99.90;;;;;;5047517;28;20175;-57
2021/07/13 04:35:52;;;;;;;21.67;19.38;;;18.20;99.90;;;;;;5044885;28;20101;-57
2021/07/13 04:38:17;;;;;;;21.10;18.40;;;18.20;99.90;;;;;;5041948;28;20120;-57
2021/07/13 04:40:43;;;;;;;20.98;18.08;;;18.20;99.90;;;;;;5054915;28;20076;-57
2021/07/13 04:43:08;;;;;;;22.98;18.83;;;18.30;99.90;;;;;;5043689;28;20041;-57
2021/07/13 04:45:34;;;;;;;21.60;18.05;;;18.30;99.90;;;;;;5052781;28;20029;-57
2021/07/13 04:47:59;;;;;;;20.38;18.00;;;18.30;99.90;;;;;;5055463;28;20020;-57
2021/07/13 04:50:25;;;;;;;20.70;17.50;;;18.40;99.90;;;;;;5043313;28;20029;-57
2021/07/13 04:52:50;;;;;;;21.90;18.05;;;18.40;99.90;;;;;;5054444;28;20498;-57
2021/07/13 04:55:17;;;;;;;19.15;17.05;;;18.40;99.90;;;;;;5048254;28;20086;-57
2021/07/13 04:57:44;;;;;;;20.58;17.55;;;18.50;99.90;;;;;;5045322;28;20032;-57
2021/07/13 05:00:11;;;;;;;20.05;16.55;;;18.50;99.90;;;;;;5047716;28;20064;-57
2021/07/13 05:02:36;;;;;;;19.10;17.08;;;18.60;99.90;;;;;;5033061;28;20104;-57
2021/07/13 05:05:03;;;;;;;18.23;16.20;;;18.60;99.90;;;;;;5033526;28;20117;-57
2021/07/13 05:07:29;;;;;;;19.77;16.42;;;18.70;99.90;;;;;;5045354;28;20379;-57
2021/07/13 05:09:54;;;;;;;19.17;17.10;;;18.70;99.90;;;;;;5055188;28;20032;-57
2021/07/13 05:12:20;;;;;;;20.00;16.50;;;18.80;99.90;;;;;;5049946;28;20025;-57
2021/07/13 05:14:45;;;;;;;21.02;16.65;;;18.90;99.90;;;;;;5054214;28;20119;-57
2021/07/13 05:17:12;;;;;;;20.67;16.95;;;18.90;99.90;;;;;;5053282;28;20032;-57
2021/07/13 05:19:39;;;;;;;18.52;15.35;;;19.00;99.90;;;;;;5041794;28;20180;-57
2021/07/13 05:22:07;;;;;;;19.95;17.80;;;19.00;99.90;;;;;;5034255;28;20252;-57
2021/07/13 05:24:33;;;;;;;20.42;15.82;;;19.00;99.90;;;;;;5032347;28;20028;-57
2021/07/13 05:26:58;;;;;;;18.90;15.82;;;19.10;99.90;;;;;;5033187;28;20501;-57
2021/07/13 05:29:24;;;;;;;19.30;16.23;;;19.20;99.90;;;;;;5045964;28;20033;-57
2021/07/13 05:31:50;;;;;;;16.40;14.70;;;19.30;99.90;;;;;;5038487;28;20033;-57
2021/07/13 05:34:16;;;;;;;17.23;15.40;;;19.40;99.90;;;;;;5049907;28;20024;-57
2021/07/13 05:36:41;;;;;;;26.05;15.90;;;19.60;99.90;;;;;;5043773;28;20494;-57
2021/07/13 05:39:09;;;;;;;21.58;16.80;;;19.70;99.90;;;;;;5032440;28;20051;-57
2021/07/13 05:41:34;;;;;;;18.92;16.88;;;19.80;99.90;;;;;;5030827;28;20045;-57
2021/07/13 05:44:00;;;;;;;19.40;16.02;;;19.90;99.90;;;;;;5031128;28;20549;-57
2021/07/13 05:46:26;;;;;;;17.33;15.13;;;20.10;99.90;;;;;;5032085;28;20037;-57
2021/07/13 05:48:52;;;;;;;20.15;15.52;;;20.20;99.90;;;;;;5033067;28;20509;-57
2021/07/13 05:51:18;;;;;;;16.35;14.48;;;20.40;99.90;;;;;;5031376;28;20372;-58
2021/07/13 05:53:43;;;;;;;16.25;13.23;;;20.50;99.90;;;;;;5029803;28;20071;-58
2021/07/13 05:56:10;;;;;;;16.40;14.38;;;20.60;99.90;;;;;;5032766;28;20025;-58
2021/07/13 05:58:35;;;;;;;15.68;13.20;;;20.70;99.90;;;;;;5029088;28;20033;-57
2021/07/13 06:01:01;;;;;;;19.80;13.02;;;20.80;99.90;;;;;;5031948;28;20445;-58
2021/07/13 06:03:27;;;;;;;16.13;13.77;;;20.90;99.90;;;;;;5032725;28;20657;-58
2021/07/13 06:05:52;;;;;;;15.93;14.18;;;21.00;99.90;;;;;;5031266;28;20028;-57
2021/07/13 06:08:18;;;;;;;16.48;13.63;;;21.20;99.90;;;;;;5029685;28;20043;-57
2021/07/13 06:10:43;;;;;;;14.70;13.15;;;21.30;99.90;;;;;;5033195;28;20033;-57
2021/07/13 06:13:09;;;;;;;16.10;14.40;;;21.40;99.90;;;;;;5031414;28;20120;-58
2021/07/13 06:15:34;;;;;;;15.60;13.10;;;21.40;99.90;;;;;;5030111;28;20098;-58
2021/07/13 06:18:00;;;;;;;16.77;13.48;;;21.40;99.90;;;;;;5000844;28;1104953;-58
2021/07/13 06:20:25;;;;;;;15.60;13.75;;;21.50;99.90;;;;;;5052546;28;20111;-58
2021/07/13 06:22:51;;;;;;;20.13;14.40;;;21.60;99.90;;;;;;5035106;28;20021;-58
2021/07/13 06:25:16;;;;;;;14.02;12.52;;;21.60;99.90;;;;;;5042602;28;20470;-58
2021/07/13 06:27:42;;;;;;;16.02;13.98;;;21.70;99.90;;;;;;5035902;28;20033;-58
2021/07/13 06:30:09;;;;;;;16.88;14.38;;;21.70;99.90;;;;;;5031938;28;20232;-58
2021/07/13 06:32:34;;;;;;;16.50;13.70;;;21.90;99.90;;;;;;5030312;28;20029;-58
2021/07/13 06:35:00;;;;;;;19.23;14.50;;;22.00;99.90;;;;;;5037021;28;20196;-58
2021/07/13 06:37:26;;;;;;;16.83;14.50;;;22.10;99.90;;;;;;5030220;28;20053;-58
2021/07/13 06:39:52;;;;;;;17.40;15.00;;;22.20;99.90;;;;;;5029811;28;20229;-58
2021/07/13 06:42:17;;;;;;;17.50;14.50;;;22.20;99.90;;;;;;5037305;28;20105;-58
2021/07/13 06:44:43;;;;;;;15.38;13.65;;;22.20;99.90;;;;;;5055398;28;20022;-58
2021/07/13 06:47:08;;;;;;;14.55;12.98;;;22.40;99.90;;;;;;5049222;28;20061;-58
2021/07/13 06:49:34;;;;;;;14.93;13.10;;;22.50;99.90;;;;;;5041874;28;20033;-58
2021/07/13 06:51:59;;;;;;;16.60;13.27;;;22.60;99.90;;;;;;5049397;28;20021;-58
2021/07/13 06:54:25;;;;;;;19.63;13.20;;;22.70;99.90;;;;;;5034729;28;20427;-58
2021/07/13 06:56:50;;;;;;;19.23;12.70;;;22.80;99.90;;;;;;5036253;28;20072;-58
2021/07/13 06:59:16;;;;;;;17.77;13.25;;;22.90;99.90;;;;;;5040132;28;20174;-58
2021/07/13 07:01:41;;;;;;;19.05;12.65;;;23.00;99.90;;;;;;5035534;28;20418;-58
2021/07/13 07:04:07;;;;;;;15.40;12.90;;;23.10;99.90;;;;;;5034301;28;20079;-58
2021/07/13 07:06:32;;;;;;;16.40;12.07;;;23.10;99.90;;;;;;5046595;28;20035;-57
2021/07/13 07:08:58;;;;;;;25.42;21.45;;;23.10;99.90;;;;;;5051005;28;20022;-57
2021/07/13 07:11:23;;;;;;;30.15;24.13;;;23.10;99.90;;;;;;5036519;28;20029;-58
2021/07/13 07:13:49;;;;;;;19.10;15.20;;;23.20;99.90;;;;;;5026192;28;20022;-58
2021/07/13 07:16:15;;;;;;;15.80;12.60;;;23.20;99.90;;;;;;5031373;28;20498;-58
2021/07/13 07:18:40;;;;;;;14.57;13.02;;;23.20;99.90;;;;;;5034572;28;20033;-58
2021/07/13 07:21:06;;;;;;;17.08;12.73;;;23.20;99.90;;;;;;5037643;28;20479;-57
2021/07/13 07:23:31;;;;;;;15.48;13.52;;;23.30;99.90;;;;;;5034324;28;20045;-57
2021/07/13 07:25:57;;;;;;;15.10;13.45;;;23.30;99.90;;;;;;5034736;28;20057;-58
2021/07/13 07:28:23;;;;;;;15.60;13.68;;;23.30;99.90;;;;;;5036937;28;20025;-58
2021/07/13 07:30:49;;;;;;;15.68;14.00;;;23.40;99.90;;;;;;5032434;28;20052;-58
2021/07/13 07:33:14;;;;;;;17.58;13.65;;;23.50;99.90;;;;;;5037591;28;20401;-58
2021/07/13 07:35:40;;;;;;;16.20;13.60;;;23.60;99.90;;;;;;5037325;28;20025;-58
2021/07/13 07:38:05;;;;;;;20.27;14.32;;;23.80;99.90;;;;;;5047011;28;20025;-58
2021/07/13 07:40:31;;;;;;;15.85;14.15;;;23.90;99.90;;;;;;5047210;28;20048;-57
2021/07/13 07:42:58;;;;;;;22.38;14.32;;;24.00;99.90;;;;;;5033950;28;20022;-57
2021/07/13 07:45:24;;;;;;;18.05;14.73;;;24.20;99.90;;;;;;5054753;28;20482;-57
2021/07/13 07:47:50;;;;;;;15.38;13.13;;;24.20;99.90;;;;;;5035720;28;20155;-57
2021/07/13 07:50:18;;;;;;;18.38;13.63;;;24.40;99.90;;;;;;5046773;28;20035;-58
2021/07/13 07:52:43;;;;;;;23.65;14.32;;;24.60;99.90;;;;;;5035176;28;20633;-58
2021/07/13 07:55:11;;;;;;;17.02;14.30;;;24.90;99.90;;;;;;5035804;28;20028;-58
2021/07/13 07:57:36;;;;;;;16.85;13.27;;;25.20;99.90;;;;;;5036229;28;20422;-58
2021/07/13 08:00:07;;;;;;;15.38;12.68;;;25.30;99.90;;;;;;5037440;28;20029;-57
2021/07/13 08:02:33;;;;;;;15.15;12.02;;;25.70;99.90;;;;;;5036334;28;20025;-58
2021/07/13 08:05:00;;;;;;;15.30;13.38;;;25.90;99.90;;;;;;5039916;28;20028;-58
2021/07/13 08:07:26;;;;;;;15.32;13.13;;;26.10;99.90;;;;;;5036998;28;20056;-58
2021/07/13 08:09:51;;;;;;;15.77;12.95;;;26.00;99.90;;;;;;5035890;28;20033;-58
2021/07/13 08:12:16;;;;;;;13.98;12.50;;;26.20;99.90;;;;;;5049368;28;20102;-58
2021/07/13 08:14:42;;;;;;;13.45;12.05;;;26.30;99.90;;;;;;5055115;28;20036;-58
2021/07/13 08:17:07;;;;;;;13.60;12.18;;;26.40;99.90;;;;;;5050150;28;20032;-58
2021/07/13 08:19:38;;;;;;;15.75;11.35;;;26.50;99.90;;;;;;5034473;28;20057;-58
2021/07/13 08:22:08;;;;;;;11.60;10.48;;;26.60;99.90;;;;;;5041500;28;20479;-58
2021/07/13 08:24:34;;;;;;;12.17;10.67;;;26.90;99.90;;;;;;5035828;28;20083;-58
2021/07/13 08:27:00;;;;;;;11.55;10.35;;;27.00;99.90;;;;;;5039380;28;20796;-58
2021/07/13 08:29:25;;;;;;;12.95;9.15;;;27.20;99.90;;;;;;5040557;28;20126;-59
2021/07/13 08:31:56;;;;;;;9.68;8.70;;;27.50;99.60;;;;;;5035987;28;20399;-60
2021/07/13 08:34:22;;;;;;;8.63;7.82;;;27.60;99.20;;;;;;5037791;28;20091;-58
2021/07/13 08:36:47;;;;;;;8.27;7.25;;;27.70;98.00;;;;;;5034235;28;20033;-59
2021/07/13 08:39:13;;;;;;;8.18;7.38;;;27.90;97.60;;;;;;5041869;28;20029;-59
2021/07/13 08:41:39;;;;;;;7.53;6.60;;;28.30;97.10;;;;;;5036472;28;20034;-58
2021/07/13 08:44:06;;;;;;;7.30;6.60;;;29.00;94.20;;;;;;5050815;28;20024;-59
2021/07/13 08:46:32;;;;;;;6.45;5.75;;;30.00;92.90;;;;;;5031411;28;20171;-60
2021/07/13 08:49:03;;;;;;;8.05;5.30;;;30.70;91.50;;;;;;5035358;28;20061;-60
2021/07/13 08:51:28;;;;;;;7.38;5.00;;;31.50;85.50;;;;;;5051303;28;20027;-59
2021/07/13 08:53:54;;;;;;;6.32;4.43;;;32.20;79.90;;;;;;5044252;28;20029;-59
2021/07/13 08:56:20;;;;;;;10.70;4.85;;;32.80;75.20;;;;;;5049242;28;20024;-60
2021/07/13 08:58:45;;;;;;;7.10;4.47;;;33.70;71.70;;;;;;5045400;28;20026;-61
2021/07/13 09:01:11;;;;;;;4.97;3.78;;;34.20;67.50;;;;;;5041118;28;20060;-59
2021/07/13 09:03:55;;;;;;;7.80;3.40;;;34.70;63.20;;;;;;5053565;28;20021;-60
2021/07/13 09:06:22;;;;;;;17.85;3.40;;;35.00;59.10;;;;;;5040866;28;20052;-60
2021/07/13 09:08:48;;;;;;;5.68;2.97;;;36.20;57.70;;;;;;5057887;28;20105;-60
2021/07/13 09:11:21;;;;;;;3.53;3.00;;;37.30;52.90;;;;;;5049339;28;20554;-60
2021/07/13 09:13:53;;;;;;;3.80;2.75;;;37.60;52.40;;;;;;5045988;28;20052;-60
2021/07/13 09:16:21;;;;;;;3.22;2.95;;;37.00;52.20;;;;;;5047044;28;20108;-59
2021/07/13 09:18:54;;;;;;;3.65;3.35;;;37.40;51.30;;;;;;5062557;28;20063;-58
2021/07/13 09:21:33;;;;;;;4.40;3.10;;;37.80;51.20;;;;;;5055687;28;20543;-59
2021/07/13 09:24:09;;;;;;;2.78;2.58;;;38.20;50.80;;;;;;5035582;28;20049;-58
2021/07/13 09:26:52;;;;;;;3.08;2.88;;;38.20;48.70;;;;;;5035498;28;20010;-58
2021/07/13 09:29:39;;;;;;;4.32;3.35;;;38.60;48.20;;;;;;5036500;28;20074;-58
2021/07/13 09:32:22;;;;;;;5.63;2.75;;;39.30;47.30;;;;;;5036224;28;20041;-58
2021/07/13 09:34:51;;;;;;;4.43;2.38;;;40.20;45.40;;;;;;5034748;28;20482;-58
2021/07/13 09:37:20;;;;;;;4.63;2.22;;;40.30;44.20;;;;;;5039773;28;20190;-58
2021/07/13 09:39:55;;;;;;;3.88;2.38;;;38.90;45.20;;;;;;5051200;28;20028;-58
2021/07/13 09:42:22;;;;;;;4.25;3.47;;;38.20;46.20;;;;;;5042273;28;20021;-58
2021/07/13 09:44:47;;;;;;;14.25;3.42;;;37.20;46.80;;;;;;5050010;28;20026;-58
2021/07/13 09:47:27;;;;;;;6.15;3.35;;;36.30;49.20;;;;;;5054206;28;20035;-57
2021/07/13 09:49:53;;;;;;;4.43;3.78;;;36.10;49.40;;;;;;5038865;28;20021;-57
2021/07/13 09:52:23;;;;;;;2.53;2.30;;;36.40;49.80;;;;;;5054591;28;20039;-60
2021/07/13 09:54:49;;;;;;;3.70;3.40;;;36.90;48.70;;;;;;5041736;28;20053;-57
2021/07/13 09:57:16;;;;;;;2.90;2.65;;;37.00;48.80;;;;;;5054600;28;20118;-57
2021/07/13 09:59:52;;;;;;;3.42;2.90;;;36.50;48.80;;;;;;5042611;28;20026;-58
2021/07/13 10:02:20;;;;;;;3.30;2.90;;;37.20;48.20;;;;;;5037582;28;20137;-58
2021/07/13 10:04:47;;;;;;;3.17;2.70;;;37.50;48.00;;;;;;5036343;28;20069;-56
2021/07/13 10:07:15;;;;;;;6.47;3.63;;;38.30;45.20;;;;;;5052986;28;20427;-58
2021/07/13 10:09:49;;;;;;;7.67;3.87;;;38.50;45.40;;;;;;5051962;28;20037;-58
2021/07/13 10:12:22;;;;;;;4.45;4.05;;;38.50;44.80;;;;;;5054431;28;20021;-57
2021/07/13 10:14:56;;;;;;;3.45;2.90;;;38.70;44.10;;;;;;5038220;28;20404;-57
2021/07/13 10:17:30;;;;;;;2.80;2.60;;;38.30;45.20;;;;;;5052554;28;20036;-59
2021/07/13 10:20:00;;;;;;;2.72;2.20;;;37.90;45.90;;;;;;5056158;28;20029;-58
2021/07/13 10:22:27;;;;;;;3.10;2.90;;;37.20;46.70;;;;;;5063832;28;20025;-60
2021/07/13 10:24:57;;;;;;;3.95;2.70;;;37.30;47.90;;;;;;5042526;28;20475;-58
2021/07/13 10:27:31;;;;;;;2.63;2.35;;;38.10;46.80;;;;;;5053346;28;20406;-58
2021/07/13 10:29:58;;;;;;;2.40;2.20;;;38.70;43.40;;;;;;5043051;28;20025;-58
2021/07/13 10:32:23;;;;;;;3.00;2.08;;;39.90;43.30;;;;;;5033526;28;20026;-58
2021/07/13 10:34:56;;;;;;;2.55;2.22;;;40.30;43.20;;;;;;5039201;28;20509;-59
2021/07/13 10:37:32;;;;;;;2.42;2.22;;;40.90;42.20;;;;;;5038314;28;20382;-59
2021/07/13 10:40:01;;;;;;;2.78;2.30;;;41.10;41.30;;;;;;5044748;28;20029;-59
2021/07/13 10:42:42;;;;;;;2.45;2.25;;;40.00;43.20;;;;;;5050633;28;20017;-58
2021/07/13 10:45:12;;;;;;;3.30;2.40;;;39.70;43.90;;;;;;5052689;28;20032;-59
2021/07/13 10:47:57;;;;;;;2.58;2.38;;;39.50;46.30;;;;;;5054074;28;20027;-58
2021/07/13 10:50:22;;;;;;;2.50;2.30;;;39.00;44.80;;;;;;5049101;28;20383;-59
2021/07/13 10:53:08;;;;;;;2.58;2.03;;;38.40;44.30;;;;;;5054676;28;20035;-58
2021/07/13 10:55:33;;;;;;;2.45;2.25;;;37.70;44.10;;;;;;5039279;28;20052;-58
2021/07/13 10:58:14;;;;;;;2.20;2.00;;;37.40;45.00;;;;;;5053253;28;20064;-58
2021/07/13 11:01:01;;;;;;;2.90;2.70;;;36.50;45.60;;;;;;5048034;28;20094;-58
2021/07/13 11:03:29;;;;;;;4.72;3.20;;;35.40;47.60;;;;;;5034982;28;20029;-59
2021/07/13 11:06:06;;;;;;;6.50;3.38;;;35.50;47.40;;;;;;5034948;28;20018;-58
2021/07/13 11:08:40;;;;;;;4.25;3.30;;;35.40;48.50;;;;;;5052448;28;20107;-58
2021/07/13 11:11:13;;;;;;;13.82;12.07;;;35.80;47.80;;;;;;5043103;28;20013;-59
2021/07/13 11:13:39;;;;;;;7.00;6.30;;;36.10;46.70;;;;;;5045061;28;20112;-58
2021/07/13 11:16:05;;;;;;;3.33;3.10;;;36.50;46.50;;;;;;5038148;28;20193;-58
2021/07/13 11:18:32;;;;;;;10.38;3.95;;;36.10;47.20;;;;;;5060485;28;20039;-58
2021/07/13 11:21:18;;;;;;;3.90;3.42;;;35.50;48.00;;;;;;5047900;28;20045;-60
2021/07/13 11:23:45;;;;;;;3.03;2.83;;;34.90;48.10;;;;;;5064174;28;20351;-58
2021/07/13 11:26:14;;;;;;;4.07;3.08;;;34.90;49.90;;;;;;5057626;28;20021;-59
2021/07/13 11:28:54;;;;;;;7.28;3.40;;;35.50;49.50;;;;;;5057268;28;20486;-62
2021/07/13 11:31:22;;;;;;;9.35;3.83;;;35.90;48.80;;;;;;5053391;28;20397;-56
2021/07/13 11:34:02;;;;;;;8.38;3.33;;;35.20;49.10;;;;;;5048774;28;20086;-57
2021/07/13 11:36:33;;;;;;;5.60;3.40;;;34.40;48.10;;;;;;5043638;28;20033;-60
2021/07/13 11:39:02;;;;;;;8.05;3.63;;;34.20;51.30;;;;;;5050717;28;20016;-57
2021/07/13 11:41:29;;;;;;;6.30;3.38;;;34.70;50.20;;;;;;5048993;28;20033;-56
2021/07/13 11:44:01;;;;;;;6.75;4.18;;;34.10;50.60;;;;;;5053345;28;20032;-53
2021/07/13 11:46:28;;;;;;;3.45;3.15;;;33.70;50.90;;;;;;5040677;28;20523;-54
2021/07/13 11:49:17;;;;;;;3.95;3.40;;;33.10;52.20;;;;;;5038714;28;20104;-55
2021/07/13 11:51:56;;;;;;;4.28;3.50;;;32.30;52.70;;;;;;5045857;28;20036;-55
2021/07/13 11:54:30;;;;;;;4.25;3.95;;;31.60;57.90;;;;;;5033740;28;20036;-55
2021/07/13 11:56:57;;;;;;;5.18;4.00;;;31.10;56.50;;;;;;5046472;28;20104;-56
2021/07/13 11:59:25;;;;;;;6.13;3.45;;;30.80;56.20;;;;;;5054377;28;20099;-59
2021/07/13 12:01:54;;;;;;;4.43;3.65;;;30.50;55.80;;;;;;5047021;28;20664;-57
2021/07/13 12:04:25;;;;;;;4.60;4.07;;;30.20;56.90;;;;;;5044966;28;20040;-57
2021/07/13 12:06:53;;;;;;;4.13;3.83;;;29.90;57.20;;;;;;5034817;28;20478;-58
2021/07/13 12:09:30;;;;;;;4.03;3.63;;;29.80;59.30;;;;;;5036853;28;20033;-57
2021/07/13 12:12:09;;;;;;;4.30;3.88;;;29.70;57.80;;;;;;5039048;28;20025;-56
2021/07/13 12:14:37;;;;;;;5.38;3.92;;;29.60;58.30;;;;;;5050694;28;20117;-57
2021/07/13 12:17:04;;;;;;;4.47;4.07;;;29.50;59.50;;;;;;5047731;28;20486;-57
2021/07/13 12:19:31;;;;;;;5.13;4.03;;;29.40;58.60;;;;;;5056368;28;20091;-57
2021/07/13 12:22:10;;;;;;;5.03;4.63;;;29.10;59.50;;;;;;5056237;28;20053;-57
2021/07/13 12:24:38;;;;;;;5.30;4.20;;;28.90;62.60;;;;;;5042050;28;20236;-57
2021/07/13 12:27:07;;;;;;;4.78;4.35;;;28.80;62.90;;;;;;5065170;28;20032;-56
2021/07/13 12:29:41;;;;;;;4.72;4.32;;;28.80;65.10;;;;;;5053635;28;20075;-57
2021/07/13 12:32:18;;;;;;;10.32;5.25;;;28.70;63.50;;;;;;5057330;28;20548;-58
2021/07/13 12:34:45;;;;;;;6.03;4.57;;;28.80;62.80;;;;;;5057261;28;20017;-57
2021/07/13 12:37:22;;;;;;;7.30;4.63;;;28.80;61.30;;;;;;5051334;28;20033;-57
2021/07/13 12:39:50;;;;;;;5.72;5.05;;;28.80;61.70;;;;;;5061131;28;20211;-57
2021/07/13 12:42:22;;;;;;;8.40;4.30;;;29.00;62.50;;;;;;5063115;28;20025;-59